Time;durP1;ratioP1;P1;durP2;ratioP2;P2;SDS_P1;SDS_P2;PMS_P1;PMS_P2;Temp;Humidity;BMP_temperature;BMP_pressure;BME280_temperature;BME280_humidity;BME280_pressure;Samples;Min_cycle;Max_cycle;Signal;HPM_P1;HPM_P2
2023/05/07 00:01:29;;;;;;;22.40;17.63;;;12.50;99.90;;;;;;5069481;28;20040;-82
2023/05/07 00:03:55;;;;;;;22.90;17.30;;;12.50;99.90;;;;;;5043635;28;20041;-83
2023/05/07 00:06:20;;;;;;;26.63;18.90;;;12.40;99.90;;;;;;5069413;28;20037;-83
2023/05/07 00:08:46;;;;;;;20.88;17.92;;;12.70;99.90;;;;;;5045012;28;20043;-83
2023/05/07 00:11:11;;;;;;;21.92;18.75;;;12.40;99.90;;;;;;5061388;28;20141;-83
2023/05/07 00:13:37;;;;;;;20.27;17.88;;;12.40;99.90;;;;;;5068013;28;20066;-82
2023/05/07 00:16:03;;;;;;;23.52;18.20;;;14.00;99.90;;;;;;5070227;28;20135;-81
2023/05/07 00:18:32;;;;;;;24.65;18.15;;;12.40;99.90;;;;;;5070510;28;20175;-82
2023/05/07 00:20:58;;;;;;;22.40;19.45;;;12.30;99.90;;;;;;5043488;28;20044;-82
2023/05/07 00:23:23;;;;;;;23.58;18.42;;;12.20;99.90;;;;;;5051416;28;20507;-82
2023/05/07 00:25:49;;;;;;;23.55;19.48;;;12.20;99.90;;;;;;5069094;28;20064;-82
2023/05/07 00:28:15;;;;;;;21.42;18.13;;;13.40;99.90;;;;;;5059816;28;20048;-83
2023/05/07 00:30:40;;;;;;;26.15;19.27;;;12.20;99.90;;;;;;5066881;28;20040;-84
2023/05/07 00:33:06;;;;;;;22.90;19.08;;;12.20;99.90;;;;;;5067877;28;20045;-84
2023/05/07 00:35:31;;;;;;;26.63;19.80;;;12.20;99.90;;;;;;5067702;28;20048;-83
2023/05/07 00:37:57;;;;;;;25.77;20.20;;;13.40;99.90;;;;;;5068983;28;20141;-84
2023/05/07 00:40:23;;;;;;;20.77;18.45;;;12.20;99.90;;;;;;5065992;28;20086;-84
2023/05/07 00:42:49;;;;;;;22.85;18.92;;;12.10;99.90;;;;;;5060545;28;20052;-83
2023/05/07 00:45:16;;;;;;;23.17;19.05;;;13.70;99.90;;;;;;5064256;28;20559;-82
2023/05/07 00:47:42;;;;;;;28.38;21.35;;;12.10;99.90;;;;;;5061658;28;20090;-83
2023/05/07 00:50:12;;;;;;;23.13;18.50;;;12.10;99.90;;;;;;5068173;28;20036;-83
2023/05/07 00:52:38;;;;;;;25.88;19.35;;;12.10;99.90;;;;;;5067477;28;20094;-83
2023/05/07 00:55:06;;;;;;;27.38;20.80;;;12.90;99.90;;;;;;5048305;28;20449;-84
2023/05/07 00:57:37;;;;;;;31.10;20.85;;;12.00;99.90;;;;;;5068569;28;20056;-83
2023/05/07 01:00:04;;;;;;;28.00;19.90;;;14.40;99.90;;;;;;5067817;28;20044;-84
2023/05/07 01:02:30;;;;;;;25.42;19.88;;;12.00;99.90;;;;;;5065126;28;20041;-84
2023/05/07 01:04:56;;;;;;;23.20;18.92;;;13.90;99.90;;;;;;5067604;28;20051;-84
2023/05/07 01:07:23;;;;;;;29.13;21.60;;;13.20;99.90;;;;;;5050849;28;20048;-84
2023/05/07 01:09:49;;;;;;;26.55;20.15;;;11.90;99.90;;;;;;5066324;28;20050;-83
2023/05/07 01:12:15;;;;;;;25.25;20.17;;;14.00;99.90;;;;;;5050919;28;20048;-84
2023/05/07 01:14:41;;;;;;;27.75;20.83;;;11.80;99.90;;;;;;5066646;28;20086;-83
2023/05/07 01:17:08;;;;;;;24.77;19.73;;;11.90;99.90;;;;;;5062137;28;20066;-83
2023/05/07 01:19:33;;;;;;;25.85;20.73;;;11.80;99.90;;;;;;5066782;28;20054;-81
2023/05/07 01:22:10;;;;;;;26.88;21.55;;;11.80;99.90;;;;;;5063061;28;20073;-84
2023/05/07 01:24:36;;;;;;;25.65;20.15;;;11.70;99.90;;;;;;5049129;28;20116;-85
2023/05/07 01:27:02;;;;;;;28.50;21.13;;;11.70;99.90;;;;;;5069434;28;20479;-85
2023/05/07 01:29:28;;;;;;;31.70;22.27;;;11.70;99.90;;;;;;5068573;28;20049;-85
2023/05/07 01:31:57;;;;;;;30.42;21.77;;;11.40;99.90;;;;;;5065772;28;20082;-84
2023/05/07 01:34:26;;;;;;;27.27;22.08;;;13.60;99.90;;;;;;5066562;28;20086;-84
2023/05/07 01:36:55;;;;;;;24.42;20.70;;;11.70;99.90;;;;;;5059339;28;20051;-83
2023/05/07 01:39:24;;;;;;;25.48;21.90;;;13.30;99.90;;;;;;5067072;28;20471;-83
2023/05/07 01:41:50;;;;;;;25.77;21.77;;;13.70;99.90;;;;;;5077644;28;20048;-82
2023/05/07 01:44:18;;;;;;;29.15;22.08;;;13.10;99.90;;;;;;5059069;28;20039;-83
2023/05/07 01:46:44;;;;;;;27.75;22.27;;;12.60;99.90;;;;;;5042946;28;20044;-84
2023/05/07 01:49:10;;;;;;;26.52;22.02;;;11.80;99.90;;;;;;5042744;28;20097;-82
2023/05/07 01:51:36;;;;;;;25.65;22.30;;;12.00;99.90;;;;;;5068662;28;20048;-82
2023/05/07 01:54:02;;;;;;;29.33;22.85;;;11.50;99.90;;;;;;5065992;28;20067;-84
2023/05/07 01:56:27;;;;;;;31.00;23.55;;;11.50;99.90;;;;;;5067150;28;20072;-83
2023/05/07 01:58:53;;;;;;;28.60;24.40;;;11.40;99.90;;;;;;5068271;28;20472;-84
2023/05/07 02:01:19;;;;;;;24.30;21.35;;;11.40;99.90;;;;;;5068764;28;20583;-83
2023/05/07 02:03:45;;;;;;;31.55;23.55;;;12.30;99.90;;;;;;5066027;28;20048;-84
2023/05/07 02:06:11;;;;;;;29.30;23.08;;;12.30;99.90;;;;;;5064711;28;20037;-82
2023/05/07 02:08:37;;;;;;;28.85;23.00;;;12.30;99.90;;;;;;5067072;28;20043;-84
2023/05/07 02:11:02;;;;;;;28.85;23.75;;;13.40;99.90;;;;;;5064839;28;20048;-81
2023/05/07 02:13:31;;;;;;;31.13;24.38;;;11.30;99.90;;;;;;5064730;28;20491;-80
2023/05/07 02:15:57;;;;;;;32.03;24.63;;;12.40;99.90;;;;;;5060933;28;20041;-83
2023/05/07 02:18:23;;;;;;;32.95;23.30;;;11.40;99.90;;;;;;5043463;28;20049;-83
2023/05/07 02:20:48;;;;;;;42.92;26.55;;;12.60;99.90;;;;;;5058668;28;20051;-82
2023/05/07 02:23:14;;;;;;;29.02;23.52;;;11.20;99.90;;;;;;5065598;28;20059;-83
2023/05/07 02:25:40;;;;;;;29.20;23.70;;;12.30;99.90;;;;;;5065908;28;20039;-82
2023/05/07 02:28:07;;;;;;;32.17;24.17;;;12.40;99.90;;;;;;5066034;28;20063;-83
2023/05/07 02:30:32;;;;;;;28.75;24.45;;;12.60;99.90;;;;;;5066003;28;20495;-81
2023/05/07 02:32:58;;;;;;;29.83;24.90;;;11.20;99.90;;;;;;5092622;28;20198;-85
2023/05/07 02:35:25;;;;;;;30.00;25.08;;;13.40;99.90;;;;;;5065720;28;20076;-84
2023/05/07 02:37:51;;;;;;;30.80;26.33;;;11.10;99.90;;;;;;5064457;28;20048;-83
2023/05/07 02:40:16;;;;;;;36.38;28.42;;;11.00;99.90;;;;;;5065990;28;20454;-83
2023/05/07 02:42:42;;;;;;;33.17;27.08;;;11.00;99.90;;;;;;5048929;28;20068;-82
2023/05/07 02:45:08;;;;;;;32.15;26.38;;;11.10;99.90;;;;;;5064652;28;20476;-82
2023/05/07 02:47:34;;;;;;;35.25;25.63;;;11.10;99.90;;;;;;5048955;28;20496;-83
2023/05/07 02:50:00;;;;;;;34.65;27.27;;;13.00;99.90;;;;;;5048839;28;20040;-82
2023/05/07 02:52:26;;;;;;;34.58;27.42;;;11.40;99.90;;;;;;5065159;28;20121;-83
2023/05/07 02:54:51;;;;;;;37.15;28.58;;;11.30;99.90;;;;;;5061683;28;20043;-84
2023/05/07 02:57:17;;;;;;;38.35;27.63;;;11.00;99.90;;;;;;5052660;28;20033;-83
2023/05/07 02:59:43;;;;;;;36.05;26.55;;;11.30;99.90;;;;;;5053300;28;20037;-83
2023/05/07 03:02:09;;;;;;;40.30;29.27;;;12.30;99.90;;;;;;5068549;28;20082;-84
2023/05/07 03:04:34;;;;;;;35.53;28.15;;;12.60;99.90;;;;;;5068488;28;20799;-83
2023/05/07 03:07:00;;;;;;;40.33;29.08;;;12.20;99.90;;;;;;5060786;28;20041;-84
2023/05/07 03:09:26;;;;;;;40.00;28.52;;;11.90;99.90;;;;;;5068178;28;20444;-83
2023/05/07 03:11:51;;;;;;;41.08;29.55;;;13.20;99.90;;;;;;5068393;28;20041;-82
2023/05/07 03:14:17;;;;;;;40.13;28.33;;;11.80;99.90;;;;;;5070069;28;20048;-84
2023/05/07 03:16:43;;;;;;;41.80;29.88;;;12.70;99.90;;;;;;5051517;28;20106;-83
2023/05/07 03:19:08;;;;;;;35.63;27.75;;;12.90;99.90;;;;;;5070684;28;20051;-82
2023/05/07 03:21:34;;;;;;;42.38;29.30;;;10.90;99.90;;;;;;5063409;28;20028;-83
2023/05/07 03:24:00;;;;;;;36.53;28.08;;;10.90;99.90;;;;;;5065289;28;20049;-83
2023/05/07 03:26:26;;;;;;;39.38;30.23;;;13.30;99.90;;;;;;5053188;28;20079;-83
2023/05/07 03:28:51;;;;;;;48.35;29.65;;;9.20;99.90;;;;;;5061893;28;20039;-85
2023/05/07 03:31:17;;;;;;;47.67;32.53;;;10.80;99.90;;;;;;5045212;28;20044;-85
2023/05/07 03:33:55;;;;;;;40.70;30.55;;;13.20;99.90;;;;;;5062205;28;20074;-84
2023/05/07 03:36:22;;;;;;;45.25;30.85;;;12.90;99.90;;;;;;5069375;28;20059;-84
2023/05/07 03:38:49;;;;;;;41.47;28.63;;;12.70;99.90;;;;;;5070683;28;20051;-84
2023/05/07 03:41:15;;;;;;;45.13;31.55;;;10.80;99.90;;;;;;5064018;28;20124;-83
2023/05/07 03:43:40;;;;;;;44.45;30.90;;;12.80;99.90;;;;;;5045552;28;20127;-85
2023/05/07 03:46:06;;;;;;;48.85;31.17;;;11.60;99.90;;;;;;5062045;28;20182;-84
2023/05/07 03:48:31;;;;;;;46.65;32.83;;;10.80;99.90;;;;;;5044742;28;20530;-85
2023/05/07 03:50:58;;;;;;;45.13;30.70;;;12.90;99.90;;;;;;5065360;28;20075;-84
2023/05/07 03:53:23;;;;;;;41.88;30.95;;;12.30;99.90;;;;;;5046573;28;20503;-83
2023/05/07 03:55:49;;;;;;;47.80;31.27;;;10.70;99.90;;;;;;5051565;28;20045;-84
2023/05/07 03:58:15;;;;;;;41.65;31.13;;;11.20;99.90;;;;;;5067913;28;20051;-84
2023/05/07 04:00:41;;;;;;;50.75;34.00;;;10.80;99.90;;;;;;5052277;28;20044;-84
2023/05/07 04:03:06;;;;;;;41.70;30.90;;;12.80;99.90;;;;;;5064905;28;20127;-85
2023/05/07 04:05:32;;;;;;;44.92;32.42;;;10.80;99.90;;;;;;5067108;28;20032;-84
2023/05/07 04:07:58;;;;;;;49.95;32.20;;;12.00;99.90;;;;;;5065881;28;20062;-83
2023/05/07 04:10:24;;;;;;;43.60;31.92;;;12.50;99.90;;;;;;5060826;28;20044;-84
2023/05/07 04:12:49;;;;;;;42.67;31.42;;;12.80;99.90;;;;;;5069812;28;20045;-84
2023/05/07 04:15:15;;;;;;;46.53;32.00;;;11.80;99.90;;;;;;5069725;28;20397;-83
2023/05/07 04:17:41;;;;;;;45.05;31.52;;;10.70;99.90;;;;;;5048343;28;20059;-84
2023/05/07 04:20:10;;;;;;;46.00;33.92;;;12.20;99.90;;;;;;5067592;28;20051;-85
2023/05/07 04:22:36;;;;;;;46.97;33.50;;;10.70;99.90;;;;;;5067583;28;20115;-83
2023/05/07 04:25:02;;;;;;;43.67;31.98;;;10.60;99.90;;;;;;5047137;28;20044;-84
2023/05/07 04:27:28;;;;;;;45.95;32.50;;;10.70;99.90;;;;;;5066587;28;20395;-84
2023/05/07 04:29:55;;;;;;;43.55;31.38;;;12.40;99.90;;;;;;5069175;28;20131;-83
2023/05/07 04:32:22;;;;;;;42.33;30.95;;;12.00;99.90;;;;;;5066993;28;20511;-83
2023/05/07 04:34:47;;;;;;;40.15;30.70;;;10.70;99.90;;;;;;5066551;28;20059;-84
2023/05/07 04:37:13;;;;;;;38.38;30.58;;;8.80;99.90;;;;;;5051633;28;20036;-85
2023/05/07 04:39:39;;;;;;;41.67;31.80;;;10.70;99.90;;;;;;5062153;28;20032;-85
2023/05/07 04:42:08;;;;;;;45.25;31.40;;;12.70;99.90;;;;;;5067193;28;20496;-83
2023/05/07 04:44:35;;;;;;;45.40;31.63;;;13.00;99.90;;;;;;5069156;28;20079;-83
2023/05/07 04:47:00;;;;;;;43.55;30.95;;;10.70;99.90;;;;;;5067222;28;20060;-84
2023/05/07 04:49:26;;;;;;;42.17;30.90;;;12.90;99.90;;;;;;5067167;28;20887;-83
2023/05/07 04:51:52;;;;;;;43.53;31.35;;;12.70;99.90;;;;;;5067173;28;20055;-84
2023/05/07 04:54:18;;;;;;;51.63;34.47;;;13.00;99.90;;;;;;5057578;28;20072;-83
2023/05/07 04:56:45;;;;;;;42.83;31.02;;;12.80;99.90;;;;;;5067934;28;20120;-82
2023/05/07 04:59:10;;;;;;;42.35;30.63;;;10.70;99.90;;;;;;5048525;28;20075;-82
2023/05/07 05:01:36;;;;;;;41.45;29.35;;;12.80;99.90;;;;;;5050189;28;20495;-83
2023/05/07 05:04:02;;;;;;;40.47;30.30;;;12.60;99.90;;;;;;5066164;28;20037;-84
2023/05/07 05:06:29;;;;;;;47.10;31.73;;;10.50;99.90;;;;;;5065474;28;20524;-83
2023/05/07 05:08:55;;;;;;;40.00;30.27;;;11.90;99.90;;;;;;5047210;28;20045;-81
2023/05/07 05:11:21;;;;;;;35.22;28.17;;;12.10;99.90;;;;;;5051472;28;20040;-82
2023/05/07 05:13:49;;;;;;;42.78;31.25;;;12.10;99.90;;;;;;5068687;28;20049;-82
2023/05/07 05:16:15;;;;;;;43.08;30.55;;;11.70;99.90;;;;;;5064551;28;20058;-83
2023/05/07 05:18:40;;;;;;;37.03;28.75;;;11.80;99.90;;;;;;5048991;28;20055;-82
2023/05/07 05:21:06;;;;;;;38.83;30.05;;;11.50;99.90;;;;;;5049166;28;20036;-82
2023/05/07 05:23:32;;;;;;;38.55;29.30;;;11.90;99.90;;;;;;5057676;28;20044;-83
2023/05/07 05:25:58;;;;;;;37.78;30.38;;;9.80;99.90;;;;;;5064578;28;20044;-81
2023/05/07 05:28:24;;;;;;;36.30;27.83;;;11.00;99.90;;;;;;5064368;28;20044;-82
2023/05/07 05:30:50;;;;;;;39.88;29.95;;;12.10;99.90;;;;;;5068813;28;20053;-83
2023/05/07 05:33:16;;;;;;;33.58;26.85;;;10.50;99.90;;;;;;5045111;28;20678;-82
2023/05/07 05:35:42;;;;;;;36.85;27.85;;;12.00;99.90;;;;;;5062708;28;20051;-83
2023/05/07 05:38:08;;;;;;;37.55;26.75;;;;;;;;;;5068978;28;20033;-83
2023/05/07 05:40:33;;;;;;;38.33;28.77;;;10.50;99.90;;;;;;5059130;28;20037;-82
2023/05/07 05:42:59;;;;;;;34.80;26.08;;;12.40;99.90;;;;;;4350839;28;10000727;-84
2023/05/07 05:45:25;;;;;;;38.42;27.90;;;10.50;99.90;;;;;;5048556;28;20108;-84
2023/05/07 05:47:51;;;;;;;34.33;26.40;;;10.90;99.90;;;;;;5044505;28;20059;-82
2023/05/07 05:50:17;;;;;;;29.58;24.40;;;10.50;99.90;;;;;;5055992;28;20037;-83
2023/05/07 05:52:43;;;;;;;31.17;24.40;;;9.60;99.90;;;;;;5045101;28;20438;-84
2023/05/07 05:55:09;;;;;;;35.65;26.77;;;10.40;99.90;;;;;;5056101;28;20377;-82
2023/05/07 05:57:35;;;;;;;30.75;24.90;;;10.50;99.90;;;;;;5044539;28;20170;-81
2023/05/07 06:00:02;;;;;;;33.38;25.70;;;12.20;99.90;;;;;;5064741;28;20118;-81
2023/05/07 06:02:28;;;;;;;34.75;25.90;;;10.70;99.90;;;;;;5057666;28;20165;-82
2023/05/07 06:04:54;;;;;;;31.90;25.83;;;11.20;99.90;;;;;;5063865;28;20174;-81
2023/05/07 06:07:20;;;;;;;37.55;25.85;;;11.70;99.90;;;;;;5059713;28;20396;-80
2023/05/07 06:09:45;;;;;;;30.27;25.05;;;11.80;99.90;;;;;;5047898;28;20099;-82
2023/05/07 06:12:12;;;;;;;31.55;24.65;;;10.90;99.90;;;;;;5046131;28;20466;-82
2023/05/07 06:14:37;;;;;;;31.65;25.20;;;10.80;99.90;;;;;;5062753;28;20041;-85
2023/05/07 06:17:03;;;;;;;32.13;24.63;;;10.20;99.90;;;;;;5064482;28;20055;-82
2023/05/07 06:19:29;;;;;;;32.45;23.73;;;10.50;99.90;;;;;;5062724;28;20086;-83
2023/05/07 06:22:02;;;;;;;27.92;24.23;;;11.90;99.90;;;;;;5064295;28;20056;-87
2023/05/07 06:24:28;;;;;;;34.42;26.52;;;10.60;99.90;;;;;;5065826;28;20036;-91
2023/05/07 06:26:58;;;;;;;31.67;24.85;;;10.90;99.90;;;;;;5042391;28;20093;-90
2023/05/07 06:29:25;;;;;;;31.45;24.77;;;10.90;99.90;;;;;;5068332;28;20043;-88
2023/05/07 06:31:55;;;;;;;25.80;22.60;;;10.70;99.90;;;;;;5067492;28;20049;-86
2023/05/07 06:34:21;;;;;;;28.98;24.08;;;;;;;;;;5069014;28;20040;-86
2023/05/07 06:36:49;;;;;;;32.17;25.85;;;10.70;99.90;;;;;;5068267;28;20045;-89
2023/05/07 06:39:15;;;;;;;27.67;23.58;;;;;;;;;;5067634;28;20044;-85
2023/05/07 06:41:41;;;;;;;31.52;24.25;;;10.70;99.90;;;;;;5031426;28;20060;-87
2023/05/07 06:44:07;;;;;;;33.60;26.15;;;10.40;99.90;;;;;;5051621;28;20029;-86
2023/05/07 06:46:35;;;;;;;32.90;24.85;;;10.80;99.90;;;;;;5083007;28;20533;-88
2023/05/07 06:49:00;;;;;;;33.10;24.45;;;10.80;99.90;;;;;;5045193;28;20473;-88
2023/05/07 06:51:26;;;;;;;28.30;23.90;;;10.80;99.90;;;;;;5067638;28;20140;-86
2023/05/07 06:53:52;;;;;;;33.20;25.42;;;;;;;;;;5065632;28;20040;-86
2023/05/07 06:56:18;;;;;;;29.35;24.70;;;;;;;;;;5051090;28;20040;-83
2023/05/07 06:58:44;;;;;;;29.90;24.23;;;10.90;99.90;;;;;;5048883;28;20090;-82
2023/05/07 07:01:10;;;;;;;29.15;24.58;;;10.90;99.90;;;;;;5049049;28;20048;-82
2023/05/07 07:03:38;;;;;;;27.98;23.67;;;13.20;99.90;;;;;;5064246;28;20105;-86
2023/05/07 07:06:03;;;;;;;28.23;23.02;;;11.30;99.90;;;;;;5061129;28;20040;-84
2023/05/07 07:08:29;;;;;;;27.02;22.83;;;10.90;99.90;;;;;;5064349;28;20037;-84
2023/05/07 07:10:55;;;;;;;28.58;24.45;;;10.90;99.90;;;;;;5050369;28;20094;-83
2023/05/07 07:13:20;;;;;;;30.15;25.08;;;10.90;99.90;;;;;;5052517;28;20040;-82
2023/05/07 07:15:49;;;;;;;30.30;22.67;;;10.90;99.90;;;;;;5067257;28;20576;-82
2023/05/07 07:18:15;;;;;;;29.05;23.52;;;12.70;99.90;;;;;;5067099;28;20139;-83
2023/05/07 07:20:40;;;;;;;30.27;24.30;;;10.70;99.90;;;;;;5068926;28;20076;-81
2023/05/07 07:23:06;;;;;;;27.50;23.13;;;10.40;99.90;;;;;;5046048;28;20122;-81
2023/05/07 07:25:34;;;;;;;28.77;23.25;;;11.00;99.90;;;;;;5057796;28;20556;-82
2023/05/07 07:28:02;;;;;;;27.25;23.45;;;11.00;99.90;;;;;;5046404;28;20124;-82
2023/05/07 07:30:27;;;;;;;27.98;23.80;;;11.00;99.90;;;;;;5067249;28;20082;-81
2023/05/07 07:32:53;;;;;;;28.08;23.52;;;11.00;99.90;;;;;;5033410;28;20053;-82
2023/05/07 07:35:19;;;;;;;27.83;23.92;;;11.80;99.90;;;;;;5041766;28;20472;-82
2023/05/07 07:37:45;;;;;;;29.05;22.85;;;11.50;99.90;;;;;;5065811;28;20039;-81
2023/05/07 07:40:12;;;;;;;28.20;25.15;;;12.70;99.90;;;;;;5064826;28;20446;-82
2023/05/07 07:42:37;;;;;;;32.05;24.38;;;11.10;99.90;;;;;;5046698;28;20481;-82
2023/05/07 07:45:07;;;;;;;29.63;23.80;;;11.40;99.90;;;;;;5079594;28;20036;-81
2023/05/07 07:47:33;;;;;;;31.35;24.50;;;11.20;99.90;;;;;;5067901;28;20070;-81
2023/05/07 07:49:59;;;;;;;26.88;22.50;;;11.20;99.90;;;;;;5066548;28;20087;-81
2023/05/07 07:52:25;;;;;;;31.67;24.63;;;11.20;99.90;;;;;;5065779;28;20484;-83
2023/05/07 07:54:50;;;;;;;28.83;23.70;;;11.20;99.90;;;;;;5067201;28;20040;-81
2023/05/07 07:57:19;;;;;;;32.38;24.17;;;11.20;99.90;;;;;;5062494;28;20040;-82
2023/05/07 07:59:45;;;;;;;29.85;23.80;;;11.30;99.90;;;;;;5065185;28;20565;-80
2023/05/07 08:02:11;;;;;;;28.55;24.75;;;11.70;99.90;;;;;;5065276;28;20036;-82
2023/05/07 08:04:37;;;;;;;25.40;22.38;;;13.40;99.90;;;;;;5063918;28;20044;-81
2023/05/07 08:07:03;;;;;;;29.88;23.50;;;13.30;99.90;;;;;;5064307;28;20032;-81
2023/05/07 08:09:28;;;;;;;30.02;23.30;;;11.40;99.90;;;;;;5063213;28;20040;-82
2023/05/07 08:11:54;;;;;;;27.50;23.83;;;11.40;99.90;;;;;;5063023;28;20457;-81
2023/05/07 08:14:20;;;;;;;30.58;23.88;;;11.70;99.90;;;;;;5046180;28;20040;-82
2023/05/07 08:16:46;;;;;;;29.65;24.10;;;11.50;99.90;;;;;;5065031;28;20059;-83
2023/05/07 08:19:14;;;;;;;26.70;23.80;;;11.60;99.90;;;;;;5044853;28;20060;-83
2023/05/07 08:21:40;;;;;;;27.77;23.67;;;13.50;99.90;;;;;;5063968;28;20032;-82
2023/05/07 08:24:07;;;;;;;29.38;23.70;;;12.50;99.90;;;;;;5062176;28;20047;-79
2023/05/07 08:26:35;;;;;;;30.52;24.25;;;;;;;;;;5060454;28;20437;-82
2023/05/07 08:29:01;;;;;;;28.13;24.27;;;11.80;99.90;;;;;;5046508;28;20044;-81
2023/05/07 08:31:26;;;;;;;29.35;23.80;;;11.90;99.90;;;;;;5064185;28;20484;-80
2023/05/07 08:33:52;;;;;;;31.08;24.20;;;12.20;99.90;;;;;;5047842;28;20032;-81
2023/05/07 08:36:19;;;;;;;29.55;24.00;;;13.30;99.90;;;;;;5063994;28;20123;-82
2023/05/07 08:38:46;;;;;;;30.83;25.65;;;12.00;99.90;;;;;;5045088;28;20045;-83
2023/05/07 08:41:11;;;;;;;33.83;25.38;;;12.00;99.90;;;;;;5063800;28;20102;-82
2023/05/07 08:43:39;;;;;;;32.20;25.88;;;12.00;99.90;;;;;;5065193;28;20432;-82
2023/05/07 08:46:05;;;;;;;33.15;24.60;;;13.80;99.90;;;;;;5057815;28;20032;-83
2023/05/07 08:48:35;;;;;;;28.80;25.52;;;12.00;99.90;;;;;;5067089;28;20041;-83
2023/05/07 08:51:01;;;;;;;28.55;24.85;;;13.10;99.90;;;;;;5060933;28;20036;-82
2023/05/07 08:53:27;;;;;;;31.63;25.88;;;12.80;99.90;;;;;;5061623;28;20047;-82
2023/05/07 08:55:53;;;;;;;30.88;24.65;;;13.30;99.90;;;;;;5045579;28;20040;-82
2023/05/07 08:58:19;;;;;;;29.88;24.83;;;12.20;99.90;;;;;;5061511;28;20652;-83
2023/05/07 09:00:44;;;;;;;33.75;26.00;;;12.20;99.90;;;;;;5062943;28;20040;-81
2023/05/07 09:03:13;;;;;;;31.95;25.58;;;13.60;99.90;;;;;;5043934;28;20127;-82
2023/05/07 09:05:43;;;;;;;30.30;25.23;;;12.30;99.90;;;;;;5061865;28;20148;-83
2023/05/07 09:08:09;;;;;;;29.17;24.95;;;13.70;99.90;;;;;;5054372;28;20419;-84
2023/05/07 09:10:35;;;;;;;29.02;23.95;;;12.50;99.90;;;;;;5061117;28;20038;-85
2023/05/07 09:13:00;;;;;;;29.48;25.20;;;13.60;99.90;;;;;;5049662;28;20488;-85
2023/05/07 09:15:27;;;;;;;33.28;25.25;;;12.70;99.90;;;;;;5066181;28;20156;-86
2023/05/07 09:17:53;;;;;;;31.90;24.67;;;14.30;99.90;;;;;;5065236;28;20056;-86
2023/05/07 09:20:20;;;;;;;28.05;24.65;;;14.80;99.90;;;;;;5062681;28;20127;-84
2023/05/07 09:22:46;;;;;;;28.00;23.50;;;12.90;99.90;;;;;;5066463;28;20049;-85
2023/05/07 09:25:11;;;;;;;26.98;24.08;;;13.00;99.90;;;;;;5057013;28;20040;-86
2023/05/07 09:27:37;;;;;;;27.35;24.35;;;13.20;99.90;;;;;;5067445;28;20453;-86
2023/05/07 09:30:07;;;;;;;26.40;23.38;;;14.10;99.90;;;;;;5065763;28;20653;-87
2023/05/07 09:32:38;;;;;;;26.05;23.30;;;13.10;99.90;;;;;;5031564;28;20033;-87
2023/05/07 09:35:03;;;;;;;25.20;21.88;;;13.40;99.90;;;;;;5062040;28;20589;-88
2023/05/07 09:37:31;;;;;;;26.98;23.05;;;13.20;99.90;;;;;;5059960;28;20136;-82
2023/05/07 09:39:56;;;;;;;23.85;21.42;;;14.90;99.90;;;;;;5064765;28;20053;-83
2023/05/07 09:42:26;;;;;;;26.30;22.73;;;14.10;99.90;;;;;;5064246;28;20140;-81
2023/05/07 09:44:52;;;;;;;23.83;21.38;;;13.40;99.90;;;;;;5064481;28;20496;-82
2023/05/07 09:47:24;;;;;;;23.77;21.17;;;13.80;99.90;;;;;;5062178;28;20047;-83
2023/05/07 09:49:54;;;;;;;25.75;20.98;;;13.50;99.90;;;;;;5066367;28;20052;-82
2023/05/07 09:52:20;;;;;;;23.27;20.77;;;13.60;99.90;;;;;;5043627;28;20124;-82
2023/05/07 09:54:49;;;;;;;25.85;22.15;;;15.10;99.90;;;;;;5064207;28;20531;-81
2023/05/07 09:57:16;;;;;;;23.02;20.55;;;14.40;99.90;;;;;;5045329;28;20047;-83
2023/05/07 09:59:43;;;;;;;24.38;21.77;;;14.50;99.90;;;;;;5065453;28;20106;-83
2023/05/07 10:02:10;;;;;;;25.30;20.92;;;13.80;99.90;;;;;;5063989;28;20044;-83
2023/05/07 10:04:36;;;;;;;23.27;20.88;;;13.40;99.90;;;;;;5064122;28;20044;-86
2023/05/07 10:07:04;;;;;;;25.40;21.63;;;14.00;99.90;;;;;;5072886;28;20046;-84
2023/05/07 10:09:30;;;;;;;23.20;20.70;;;14.10;99.90;;;;;;5077981;28;20028;-86
2023/05/07 10:11:57;;;;;;;22.45;19.92;;;14.10;99.90;;;;;;5053473;28;20041;-84
2023/05/07 10:14:24;;;;;;;22.75;20.25;;;14.90;99.90;;;;;;5048937;28;20496;-89
2023/05/07 10:16:50;;;;;;;24.67;21.33;;;14.20;99.90;;;;;;5072247;28;20052;-89
2023/05/07 10:19:17;;;;;;;23.70;21.27;;;14.30;99.90;;;;;;5068459;28;20053;-87
2023/05/07 10:21:55;;;;;;;24.48;20.77;;;14.50;99.90;;;;;;5071442;28;20089;-86
2023/05/07 10:24:25;;;;;;;22.90;20.50;;;15.90;99.90;;;;;;5070128;28;20032;-86
2023/05/07 10:26:53;;;;;;;22.80;20.50;;;14.40;99.90;;;;;;5070811;28;20381;-85
2023/05/07 10:29:34;;;;;;;21.55;19.45;;;14.50;99.90;;;;;;5071176;28;20040;-87
2023/05/07 10:32:32;;;;;;;21.48;19.15;;;14.90;99.90;;;;;;5071424;28;20127;-85
2023/05/07 10:35:00;;;;;;;22.10;19.75;;;14.50;99.90;;;;;;5070668;28;20464;-84
2023/05/07 10:37:27;;;;;;;21.90;19.63;;;;;;;;;;5063961;28;20379;-82
2023/05/07 10:39:53;;;;;;;23.92;21.23;;;14.60;99.90;;;;;;5061718;28;20041;-84
2023/05/07 10:42:18;;;;;;;22.90;20.30;;;14.70;99.90;;;;;;5052394;28;20091;-82
2023/05/07 10:44:44;;;;;;;21.20;19.00;;;13.90;99.90;;;;;;5068446;28;20388;-82
2023/05/07 10:47:11;;;;;;;21.58;19.15;;;16.40;99.90;;;;;;5066252;28;20051;-81
2023/05/07 10:49:46;;;;;;;22.85;20.30;;;16.40;99.90;;;;;;5067907;28;20446;-81
2023/05/07 10:52:25;;;;;;;21.98;19.42;;;14.90;99.90;;;;;;4716386;28;10000747;-83
2023/05/07 10:55:17;;;;;;;22.42;20.15;;;15.10;99.90;;;;;;5070588;28;20072;-83
2023/05/07 10:57:43;;;;;;;21.95;19.67;;;15.10;99.90;;;;;;5066767;28;20070;-83
2023/05/07 11:00:29;;;;;;;23.20;20.80;;;15.20;99.90;;;;;;5067748;28;20114;-82
2023/05/07 11:03:01;;;;;;;21.88;19.08;;;16.60;99.90;;;;;;5032867;28;20056;-81
2023/05/07 11:05:30;;;;;;;23.75;18.20;;;16.70;99.90;;;;;;5068233;28;20573;-81
2023/05/07 11:08:00;;;;;;;20.98;18.98;;;14.40;99.90;;;;;;5051030;28;20040;-81
2023/05/07 11:10:55;;;;;;;19.15;17.23;;;15.30;99.90;;;;;;5069472;28;20041;-83
2023/05/07 11:13:58;;;;;;;21.02;18.88;;;15.20;99.90;;;;;;5066055;28;20072;-82
2023/05/07 11:16:27;;;;;;;19.60;17.52;;;16.90;99.90;;;;;;4981282;28;20450;-81
2023/05/07 11:18:54;;;;;;;20.70;18.50;;;17.00;99.90;;;;;;5047066;28;20436;-81
2023/05/07 11:21:40;;;;;;;20.30;18.20;;;17.30;99.90;;;;;;5063402;28;20033;-82
2023/05/07 11:24:10;;;;;;;19.67;17.67;;;16.10;99.90;;;;;;5060568;28;20062;-83
2023/05/07 11:26:49;;;;;;;20.02;18.02;;;15.80;99.90;;;;;;5059516;28;20041;-82
2023/05/07 11:29:19;;;;;;;20.27;17.77;;;15.80;99.90;;;;;;5043756;28;20083;-81
2023/05/07 11:31:52;;;;;;;18.95;17.15;;;17.60;99.90;;;;;;5059303;28;20041;-81
2023/05/07 11:34:22;;;;;;;19.23;17.02;;;16.10;99.90;;;;;;5048820;28;20507;-82
2023/05/07 11:36:49;;;;;;;19.63;16.95;;;16.20;99.90;;;;;;5051811;28;20036;-82
2023/05/07 11:39:44;;;;;;;18.20;16.42;;;16.30;99.90;;;;;;5049855;28;20396;-81
2023/05/07 11:42:39;;;;;;;18.33;16.52;;;18.00;99.90;;;;;;5020109;28;20101;-82
2023/05/07 11:45:09;;;;;;;19.25;16.90;;;16.40;99.90;;;;;;5045839;28;20520;-83
2023/05/07 11:47:35;;;;;;;19.20;17.20;;;16.60;99.90;;;;;;5046147;28;20395;-84
2023/05/07 11:50:07;;;;;;;19.00;17.10;;;16.70;99.90;;;;;;5064166;28;20484;-82
2023/05/07 11:52:34;;;;;;;18.95;17.00;;;16.90;99.90;;;;;;5069438;28;20087;-83
2023/05/07 11:55:03;;;;;;;19.00;17.00;;;17.10;99.90;;;;;;5067149;28;20044;-88
2023/05/07 11:57:29;;;;;;;17.95;16.17;;;17.20;99.90;;;;;;5069402;28;20071;-85
2023/05/07 11:59:58;;;;;;;17.85;16.15;;;17.50;99.90;;;;;;5068180;28;20049;-90
2023/05/07 12:02:25;;;;;;;18.40;16.70;;;17.10;99.90;;;;;;5066478;28;20058;-83
2023/05/07 12:04:52;;;;;;;17.95;16.25;;;17.10;99.90;;;;;;5084060;28;20051;-86
2023/05/07 12:07:23;;;;;;;17.08;15.48;;;18.20;99.90;;;;;;5050654;28;20064;-83
2023/05/07 12:09:53;;;;;;;18.17;16.48;;;17.30;99.90;;;;;;5068278;28;20561;-84
2023/05/07 12:12:19;;;;;;;17.48;15.77;;;17.50;99.90;;;;;;5049455;28;20044;-84
2023/05/07 12:14:45;;;;;;;16.35;14.88;;;19.50;99.90;;;;;;5049632;28;20086;-83
2023/05/07 12:17:13;;;;;;;17.58;15.98;;;19.80;99.90;;;;;;5049386;28;20048;-92
2023/05/07 12:19:42;;;;;;;17.48;15.68;;;18.00;99.90;;;;;;5067008;28;20691;-84
2023/05/07 12:22:13;;;;;;;17.50;15.70;;;18.10;99.90;;;;;;5070666;28;20434;-95
2023/05/07 12:24:58;;;;;;;15.85;14.38;;;17.10;99.90;;;;;;5067750;28;20127;-89
2023/05/07 12:27:28;;;;;;;16.23;14.75;;;17.90;99.90;;;;;;5068680;28;20052;-91
2023/05/07 12:29:57;;;;;;;17.98;15.85;;;17.80;99.90;;;;;;5069153;28;20044;-89